createdAt,value
2023-03-29T00:01:36.157Z,100278.02
2023-03-29T00:04:27.041Z,100274.21
2023-03-29T00:07:13.660Z,100271.98
2023-03-29T00:10:03.984Z,100268.52
2023-03-29T00:12:51.954Z,100271.12
2023-03-29T00:15:38.414Z,100272.31
2023-03-29T00:18:25.252Z,100271.92
2023-03-29T00:21:12.061Z,100276.05
2023-03-29T00:24:00.003Z,100277.94
2023-03-29T00:26:46.474Z,100278.83
2023-03-29T00:29:33.415Z,100281.77
2023-03-29T00:32:20.377Z,100278.66
2023-03-29T00:35:08.513Z,100277.48
2023-03-29T00:37:57.220Z,100276.80
2023-03-29T00:40:46.597Z,100279.61
2023-03-29T00:43:59.239Z,100275.84
2023-03-29T00:46:45.939Z,100276.41
2023-03-29T00:49:35.301Z,100278.17
2023-03-29T00:52:22.141Z,100277.85
2023-03-29T00:55:17.400Z,100274.94
2023-03-29T00:58:09.350Z,100275.81
2023-03-29T01:01:08.009Z,100273.58
2023-03-29T01:04:17.823Z,100270.27
2023-03-29T01:07:39.338Z,100267.65
2023-03-29T01:10:49.088Z,100267.07
2023-03-29T01:13:44.102Z,100262.34
2023-03-29T01:16:32.833Z,100264.38
2023-03-29T01:19:25.824Z,100260.87
2023-03-29T01:22:41.960Z,100257.58
2023-03-29T01:26:02.480Z,100255.02
2023-03-29T01:29:27.970Z,100251.23
2023-03-29T01:32:34.788Z,100248.11
2023-03-29T01:35:36.490Z,100246.95
2023-03-29T01:38:31.557Z,100247.55
2023-03-29T01:41:18.238Z,100241.20
2023-03-29T01:44:55.027Z,100244.84
2023-03-29T01:47:55.331Z,100247.11
2023-03-29T01:50:56.190Z,100250.74
2023-03-29T01:53:59.830Z,100249.16
2023-03-29T01:56:50.020Z,100250.84
2023-03-29T01:59:42.196Z,100249.21
2023-03-29T02:02:31.019Z,100248.83
2023-03-29T02:05:19.208Z,100245.69
2023-03-29T02:08:09.313Z,100246.05
2023-03-29T02:10:55.930Z,100245.04
2023-03-29T02:13:42.657Z,100249.21
2023-03-29T02:16:36.540Z,100251.18
2023-03-29T02:19:25.288Z,100251.77
2023-03-29T02:22:14.676Z,100249.73
2023-03-29T02:25:05.781Z,100242.71
2023-03-29T02:27:53.506Z,100250.13
2023-03-29T02:30:54.835Z,100251.17
2023-03-29T02:34:07.225Z,100251.45
2023-03-29T02:37:09.738Z,100248.14
2023-03-29T02:39:58.960Z,100250.57
2023-03-29T02:42:46.381Z,100246.77
2023-03-29T02:45:36.121Z,100248.69
2023-03-29T02:48:27.139Z,100244.20
2023-03-29T02:51:25.914Z,100242.51
2023-03-29T02:54:20.303Z,100248.59
2023-03-29T02:57:07.216Z,100246.37
2023-03-29T02:59:57.688Z,100243.48
2023-03-29T03:02:44.079Z,100242.44
2023-03-29T03:05:31.367Z,100241.95
2023-03-29T03:08:18.219Z,100245.23
2023-03-29T03:11:05.443Z,100243.84
2023-03-29T03:13:51.996Z,100246.22
2023-03-29T03:16:38.452Z,100245.15
2023-03-29T03:19:25.335Z,100246.01
2023-03-29T03:22:12.400Z,100243.77
2023-03-29T03:24:59.025Z,100244.13
2023-03-29T03:27:49.128Z,100246.91
2023-03-29T03:30:35.896Z,100246.63
2023-03-29T03:33:37.495Z,100240.64
2023-03-29T03:36:46.704Z,100236.02
2023-03-29T03:39:33.109Z,100241.44
2023-03-29T03:42:20.985Z,100239.56
2023-03-29T03:45:09.971Z,100238.54
2023-03-29T03:48:14.919Z,100231.06
2023-03-29T03:51:09.934Z,100227.61
2023-03-29T03:53:56.168Z,100236.41
2023-03-29T03:57:07.332Z,100241.63
2023-03-29T04:00:02.468Z,100241.80
2023-03-29T04:02:58.873Z,100246.21
2023-03-29T04:05:46.638Z,100250.07
2023-03-29T04:08:33.385Z,100248.21
2023-03-29T04:11:39.699Z,100250.19
2023-03-29T04:14:26.980Z,100248.55
2023-03-29T04:17:39.379Z,100251.73
2023-03-29T04:20:57.867Z,100244.83
2023-03-29T04:23:46.062Z,100247.61
2023-03-29T04:26:33.769Z,100244.67
2023-03-29T04:29:30.443Z,100241.20
2023-03-29T04:32:26.129Z,100239.11
2023-03-29T04:35:19.409Z,100243.44
2023-03-29T04:38:09.518Z,100241.52
2023-03-29T04:40:56.158Z,100239.61
2023-03-29T04:43:55.454Z,100242.02
2023-03-29T04:46:45.873Z,100243.55
2023-03-29T04:49:44.011Z,100242.70
2023-03-29T04:52:36.783Z,100240.61
2023-03-29T04:55:24.047Z,100242.83
2023-03-29T04:58:44.739Z,100241.05
2023-03-29T05:01:32.269Z,100236.14
2023-03-29T05:04:18.825Z,100237.45
2023-03-29T05:07:19.223Z,100234.39
2023-03-29T05:10:08.643Z,100230.47
2023-03-29T05:12:55.911Z,100228.98
2023-03-29T05:15:43.162Z,100231.67
2023-03-29T05:18:36.756Z,100233.33
2023-03-29T05:21:25.764Z,100229.96
2023-03-29T05:24:13.419Z,100226.28
2023-03-29T05:27:12.238Z,100227.63
2023-03-29T05:30:01.251Z,100229.14
2023-03-29T05:33:05.305Z,100228.65
2023-03-29T05:36:13.665Z,100226.59
2023-03-29T05:39:06.467Z,100226.90
2023-03-29T05:41:57.775Z,100220.13
2023-03-29T05:44:54.623Z,100226.70
2023-03-29T05:47:41.378Z,100224.42
2023-03-29T05:50:28.094Z,100222.52
2023-03-29T05:53:19.565Z,100217.14
2023-03-29T05:56:08.445Z,100216.86
2023-03-29T05:58:58.150Z,100212.58
2023-03-29T06:01:47.969Z,100210.70
2023-03-29T06:04:40.884Z,100207.92
2023-03-29T06:07:51.358Z,100214.86
2023-03-29T06:11:03.181Z,100210.83
2023-03-29T06:14:09.673Z,100203.80
2023-03-29T06:17:01.847Z,100206.52
2023-03-29T06:19:48.399Z,100206.63
2023-03-29T06:22:35.494Z,100206.19
2023-03-29T06:25:22.254Z,100209.72
2023-03-29T06:28:27.397Z,100211.93
2023-03-29T06:31:19.109Z,100211.36
2023-03-29T06:34:06.136Z,100207.31
2023-03-29T06:37:15.748Z,100203.42
2023-03-29T06:40:06.825Z,100199.58
2023-03-29T06:43:00.369Z,100194.69
2023-03-29T06:45:49.819Z,100185.60
2023-03-29T06:48:40.932Z,100178.89
2023-03-29T06:51:27.726Z,100163.91
2023-03-29T06:54:14.949Z,100155.89
2023-03-29T06:57:08.558Z,100152.69
2023-03-29T06:59:55.300Z,100149.89
2023-03-29T07:02:46.013Z,100137.44
2023-03-29T07:05:35.703Z,100119.48
2023-03-29T07:08:22.646Z,100109.21
2023-03-29T07:11:19.807Z,100105.96
2023-03-29T07:14:11.601Z,100103.76
2023-03-29T07:16:58.267Z,100101.92
2023-03-29T07:19:57.856Z,100102.30
2023-03-29T07:23:13.628Z,100101.73
2023-03-29T07:26:00.719Z,100102.93
2023-03-29T07:28:48.124Z,100101.48
2023-03-29T07:31:40.109Z,100103.54
2023-03-29T07:35:04.628Z,100096.33
2023-03-29T07:37:57.854Z,100099.64
2023-03-29T07:40:44.712Z,100095.99
2023-03-29T07:43:53.712Z,100098.86
2023-03-29T07:46:44.383Z,100094.19
2023-03-29T07:49:33.865Z,100093.72
2023-03-29T07:52:21.044Z,100095.39
2023-03-29T07:55:15.939Z,100095.27
2023-03-29T07:58:21.918Z,100096.64
2023-03-29T08:01:16.384Z,100097.33
2023-03-29T08:04:27.063Z,100098.63
2023-03-29T08:07:53.207Z,100094.94
2023-03-29T08:10:58.926Z,100096.80
2023-03-29T08:13:59.958Z,100091.63
2023-03-29T08:16:51.839Z,100093.91
2023-03-29T08:19:40.313Z,100098.17
2023-03-29T08:22:40.651Z,100092.73
2023-03-29T08:25:29.750Z,100088.59
2023-03-29T08:28:17.918Z,100089.36
2023-03-29T08:31:11.428Z,100093.38
2023-03-29T08:33:59.607Z,100088.89
2023-03-29T08:37:21.321Z,100090.23
2023-03-29T08:40:18.675Z,100083.58
2023-03-29T08:43:57.442Z,100082.13
2023-03-29T08:47:02.257Z,100084.17
2023-03-29T08:49:57.018Z,100076.91
2023-03-29T08:52:57.019Z,100075.34
2023-03-29T08:56:22.674Z,100066.20
2023-03-29T08:59:35.323Z,100059.96
2023-03-29T09:02:30.720Z,100064.13
2023-03-29T09:05:33.863Z,100062.78
2023-03-29T09:08:32.086Z,100057.70
2023-03-29T09:11:24.469Z,100056.31
2023-03-29T09:14:29.214Z,100052.55
2023-03-29T09:17:52.594Z,100054.85
2023-03-29T09:20:59.767Z,100052.40
2023-03-29T09:24:26.467Z,100056.08
2023-03-29T09:27:33.849Z,100058.39
2023-03-29T09:31:01.089Z,100059.21
2023-03-29T09:34:14.369Z,100050.98
2023-03-29T09:37:32.896Z,100051.07
2023-03-29T09:40:31.292Z,100046.95
2023-03-29T09:43:32.768Z,100043.71
2023-03-29T09:46:33.784Z,100039.78
2023-03-29T09:49:26.275Z,100040.73
2023-03-29T09:52:20.395Z,100038.23
2023-03-29T09:55:34.138Z,100032.42
2023-03-29T09:58:43.301Z,100033.84
2023-03-29T10:01:45.022Z,100024.27
2023-03-29T10:04:32.079Z,100018.27
2023-03-29T10:07:22.951Z,100015.55
2023-03-29T10:10:29.473Z,100010.99
2023-03-29T10:13:27.751Z,100006.07
2023-03-29T10:16:30.306Z,100008.39
2023-03-29T10:19:34.215Z,100005.13
2023-03-29T10:22:27.236Z,100000.59
2023-03-29T10:25:17.555Z,99993.55
2023-03-29T10:28:11.827Z,99997.27
2023-03-29T10:31:01.221Z,99997.66
2023-03-29T10:33:56.680Z,99994.64
2023-03-29T10:37:05.630Z,99989.39
2023-03-29T10:39:53.865Z,99981.30
2023-03-29T10:42:49.378Z,99978.04
2023-03-29T10:45:38.468Z,99979.31
2023-03-29T10:48:30.108Z,99979.33
2023-03-29T10:51:18.761Z,99974.58
2023-03-29T10:54:13.107Z,99973.21
2023-03-29T10:57:04.834Z,99967.58
2023-03-29T11:00:04.203Z,99966.97
2023-03-29T11:03:30.829Z,99964.63
2023-03-29T11:06:31.950Z,99960.13
2023-03-29T11:09:58.507Z,99957.73
2023-03-29T11:13:22.840Z,99959.13
2023-03-29T11:16:41.375Z,99955.65
2023-03-29T11:20:12.088Z,99953.02
2023-03-29T11:23:17.534Z,99947.08
2023-03-29T11:26:19.390Z,99945.89
2023-03-29T11:29:15.815Z,99950.05
2023-03-29T11:32:17.472Z,99936.88
2023-03-29T11:35:34.178Z,99936.50
2023-03-29T11:38:35.027Z,99932.69
2023-03-29T11:41:27.632Z,99931.06
2023-03-29T11:44:30.815Z,99930.90
2023-03-29T11:47:22.482Z,99934.64
2023-03-29T11:50:22.982Z,99931.45
2023-03-29T11:53:21.041Z,99921.88
2023-03-29T11:56:18.861Z,99924.29
2023-03-29T11:59:16.308Z,99919.58
2023-03-29T12:02:24.619Z,99920.02
2023-03-29T12:05:25.269Z,99910.90
2023-03-29T12:08:17.861Z,99903.56
2023-03-29T12:11:15.119Z,99912.52
2023-03-29T12:14:12.654Z,99912.03
2023-03-29T12:17:04.565Z,99906.55
2023-03-29T12:20:27.773Z,99902.65
2023-03-29T12:23:17.382Z,99902.20
2023-03-29T12:26:20.842Z,99897.91
2023-03-29T12:29:50.439Z,99894.94
2023-03-29T12:32:48.454Z,99892.18
2023-03-29T12:36:23.911Z,99890.66
2023-03-29T12:39:39.890Z,99878.54
2023-03-29T12:43:38.323Z,99872.15
2023-03-29T12:47:03.216Z,99869.94
2023-03-29T12:49:55.973Z,99870.68
2023-03-29T12:52:42.361Z,99870.86
2023-03-29T12:55:46.976Z,99869.89
2023-03-29T12:59:06.037Z,99864.89
2023-03-29T13:02:07.283Z,99865.88
2023-03-29T13:04:57.690Z,99863.45
2023-03-29T13:07:48.965Z,99859.27
2023-03-29T13:10:41.926Z,99855.46
2023-03-29T13:13:41.285Z,99856.64
2023-03-29T13:16:35.373Z,99856.23
2023-03-29T13:19:37.292Z,99852.42
2023-03-29T13:22:51.261Z,99865.91
2023-03-29T13:25:47.010Z,99859.27
2023-03-29T13:29:34.153Z,99856.02
2023-03-29T13:33:06.764Z,99856.09
2023-03-29T13:36:03.254Z,99849.64
2023-03-29T13:38:53.678Z,99847.99
2023-03-29T13:41:40.567Z,99846.93
2023-03-29T13:44:48.478Z,99843.63
2023-03-29T13:47:54.973Z,99844.73
2023-03-29T13:51:07.381Z,99839.77
2023-03-29T13:54:08.710Z,99834.71
2023-03-29T13:57:21.489Z,99825.65
2023-03-29T14:00:19.617Z,99833.29
2023-03-29T14:03:13.520Z,99829.08
2023-03-29T14:06:02.494Z,99827.46
2023-03-29T14:08:51.139Z,99827.81
2023-03-29T14:11:37.965Z,99828.96
2023-03-29T14:14:27.644Z,99826.21
2023-03-29T14:17:23.870Z,99825.85
2023-03-29T14:20:15.434Z,99823.29
2023-03-29T14:23:10.251Z,99820.13
2023-03-29T14:26:13.800Z,99820.77
2023-03-29T14:29:03.935Z,99815.23
2023-03-29T14:31:50.505Z,99809.73
2023-03-29T14:34:38.583Z,99805.39
2023-03-29T14:37:29.745Z,99803.96
2023-03-29T14:40:20.224Z,99800.55
2023-03-29T14:43:07.851Z,99798.59
2023-03-29T14:45:54.333Z,99795.95
2023-03-29T14:48:41.511Z,99792.55
2023-03-29T14:51:30.471Z,99792.63
2023-03-29T14:54:23.064Z,99786.98
2023-03-29T14:57:17.952Z,99784.45
2023-03-29T15:00:29.543Z,99782.08
2023-03-29T15:03:16.692Z,99779.32
2023-03-29T15:06:04.825Z,99775.81
2023-03-29T15:09:04.442Z,99776.75
2023-03-29T15:11:59.344Z,99766.75
2023-03-29T15:14:49.562Z,99771.91
2023-03-29T15:17:51.009Z,99771.94
2023-03-29T15:20:40.943Z,99772.92
2023-03-29T15:23:58.079Z,99769.23
2023-03-29T15:26:44.481Z,99773.96
2023-03-29T15:29:44.751Z,99772.31
2023-03-29T15:32:35.280Z,99768.61
2023-03-29T15:35:25.202Z,99772.33
2023-03-29T15:38:12.893Z,99765.46
2023-03-29T15:41:00.654Z,99760.89
2023-03-29T15:43:47.108Z,99762.34
2023-03-29T15:46:34.434Z,99753.36
2023-03-29T15:49:21.120Z,99755.46
2023-03-29T15:52:09.288Z,99754.08
2023-03-29T15:55:00.010Z,99750.29
2023-03-29T15:57:48.445Z,99750.17
2023-03-29T16:00:39.327Z,99749.27
2023-03-29T16:03:26.767Z,99750.48
2023-03-29T16:06:17.137Z,99747.52
2023-03-29T16:09:06.410Z,99747.52
2023-03-29T16:11:52.760Z,99744.08
2023-03-29T16:14:42.629Z,99742.91
2023-03-29T16:17:30.392Z,99741.23
2023-03-29T16:20:19.411Z,99740.27
2023-03-29T16:23:08.844Z,99740.61
2023-03-29T16:25:55.581Z,99741.66
2023-03-29T16:28:42.873Z,99733.48
2023-03-29T16:31:29.381Z,99732.83
2023-03-29T16:34:20.468Z,99730.41
2023-03-29T16:37:24.214Z,99721.42
2023-03-29T16:40:16.887Z,99728.05
2023-03-29T16:43:05.211Z,99725.93
2023-03-29T16:45:53.114Z,99724.02
2023-03-29T16:48:42.081Z,99726.30
2023-03-29T16:51:29.394Z,99723.22
2023-03-29T16:54:16.742Z,99721.08
2023-03-29T16:57:03.505Z,99722.39
2023-03-29T16:59:50.292Z,99718.14
2023-03-29T17:02:48.971Z,99721.08
2023-03-29T17:05:41.676Z,99719.95
2023-03-29T17:08:28.250Z,99727.45
2023-03-29T17:11:17.728Z,99718.19
2023-03-29T17:14:04.360Z,99718.73
2023-03-29T17:16:52.907Z,99723.20
2023-03-29T17:19:39.402Z,99718.92
2023-03-29T17:22:26.219Z,99721.58
2023-03-29T17:25:12.682Z,99712.11
2023-03-29T17:27:58.978Z,99714.72
2023-03-29T17:30:45.955Z,99712.71
2023-03-29T17:33:33.111Z,99715.34
2023-03-29T17:36:23.296Z,99716.54
2023-03-29T17:39:10.216Z,99717.69
2023-03-29T17:41:58.956Z,99720.79
2023-03-29T17:44:45.619Z,99721.95
2023-03-29T17:47:32.278Z,99722.88
2023-03-29T17:50:18.970Z,99719.42
2023-03-29T17:53:06.694Z,99721.63
2023-03-29T17:55:52.814Z,99720.66
2023-03-29T17:58:39.057Z,99716.33
2023-03-29T18:01:31.562Z,99721.48
2023-03-29T18:04:21.075Z,99722.38
2023-03-29T18:07:07.801Z,99718.69
2023-03-29T18:10:08.666Z,99717.09
2023-03-29T18:12:58.086Z,99717.07
2023-03-29T18:15:44.647Z,99714.91
2023-03-29T18:18:31.253Z,99713.33
2023-03-29T18:21:19.709Z,99713.42
2023-03-29T18:24:06.392Z,99715.52
2023-03-29T18:26:53.426Z,99714.65
2023-03-29T18:29:44.329Z,99713.82
2023-03-29T18:32:30.696Z,99716.10
2023-03-29T18:35:17.945Z,99714.74
2023-03-29T18:38:05.089Z,99709.31
2023-03-29T18:40:52.031Z,99712.13
2023-03-29T18:43:40.122Z,99709.31
2023-03-29T18:46:31.350Z,99709.74
2023-03-29T18:49:21.966Z,99708.66
2023-03-29T18:52:14.053Z,99702.05
2023-03-29T18:55:01.367Z,99699.14
2023-03-29T18:57:49.315Z,99695.10
2023-03-29T19:00:37.836Z,99687.86
2023-03-29T19:03:24.531Z,99684.89
2023-03-29T19:06:19.813Z,99683.82
2023-03-29T19:09:08.121Z,99681.42
2023-03-29T19:11:59.812Z,99688.51
2023-03-29T19:14:48.197Z,99690.24
2023-03-29T19:17:35.358Z,99686.85
2023-03-29T19:20:24.990Z,99680.42
2023-03-29T19:23:12.000Z,99676.25
2023-03-29T19:26:03.003Z,99673.48
2023-03-29T19:28:52.683Z,99673.36
2023-03-29T19:31:41.033Z,99669.37
2023-03-29T19:34:31.505Z,99669.79
2023-03-29T19:37:20.388Z,99668.52
2023-03-29T19:40:10.618Z,99662.70
2023-03-29T19:42:57.072Z,99658.04
2023-03-29T19:45:45.819Z,99647.99
2023-03-29T19:48:32.408Z,99646.16
2023-03-29T19:51:18.979Z,99646.55
2023-03-29T19:54:06.484Z,99643.30
2023-03-29T19:56:56.670Z,99640.73
2023-03-29T19:59:47.573Z,99636.92
2023-03-29T20:02:35.614Z,99637.18
2023-03-29T20:05:23.548Z,99634.64
2023-03-29T20:08:53.571Z,99632.20
2023-03-29T20:11:57.879Z,99627.42
2023-03-29T20:15:00.547Z,99630.87
2023-03-29T20:17:59.953Z,99631.45
2023-03-29T20:20:56.413Z,99630.50
2023-03-29T20:23:54.363Z,99623.95
2023-03-29T20:26:44.949Z,99622.13
2023-03-29T20:29:32.621Z,99612.91
2023-03-29T20:32:21.754Z,99613.73
2023-03-29T20:35:10.384Z,99608.77
2023-03-29T20:37:56.922Z,99603.70
2023-03-29T20:40:44.799Z,99599.91
2023-03-29T20:43:40.606Z,99598.83
2023-03-29T20:46:38.041Z,99600.14
2023-03-29T20:49:27.824Z,99599.87
2023-03-29T20:52:17.063Z,99601.15
2023-03-29T20:55:17.356Z,99596.04
2023-03-29T20:58:10.055Z,99590.82
2023-03-29T21:01:01.498Z,99585.67
2023-03-29T21:03:53.237Z,99591.92
2023-03-29T21:06:44.664Z,99592.98
2023-03-29T21:09:33.559Z,99591.88
2023-03-29T21:12:24.415Z,99591.55
2023-03-29T21:15:13.570Z,99584.80
2023-03-29T21:18:03.662Z,99583.25
2023-03-29T21:21:00.658Z,99580.73
2023-03-29T21:23:47.412Z,99579.36
2023-03-29T21:26:35.648Z,99577.13
2023-03-29T21:29:28.584Z,99575.45
2023-03-29T21:32:16.739Z,99575.40
2023-03-29T21:35:04.017Z,99571.13
2023-03-29T21:37:53.252Z,99572.83
2023-03-29T21:40:39.818Z,99571.27
2023-03-29T21:43:27.234Z,99568.13
2023-03-29T21:46:16.490Z,99565.27
2023-03-29T21:49:03.508Z,99564.05
2023-03-29T21:51:52.011Z,99563.42
2023-03-29T21:54:43.827Z,99564.77
2023-03-29T21:57:30.555Z,99556.69
2023-03-29T22:00:18.237Z,99556.08
2023-03-29T22:03:05.517Z,99560.75
2023-03-29T22:06:04.700Z,99556.94
2023-03-29T22:08:52.567Z,99552.45
2023-03-29T22:11:41.371Z,99548.55
2023-03-29T22:14:30.128Z,99538.70
2023-03-29T22:17:16.770Z,99537.86
2023-03-29T22:20:11.142Z,99536.23
2023-03-29T22:22:57.837Z,99531.50
2023-03-29T22:25:44.104Z,99528.11
2023-03-29T22:28:30.634Z,99530.92
2023-03-29T22:31:20.685Z,99524.27
2023-03-29T22:34:07.522Z,99524.41
2023-03-29T22:36:54.330Z,99523.67
2023-03-29T22:39:41.723Z,99524.94
2023-03-29T22:42:31.120Z,99524.92
2023-03-29T22:45:18.362Z,99529.63
2023-03-29T22:48:06.218Z,99524.65
2023-03-29T22:50:53.132Z,99520.55
2023-03-29T22:53:39.600Z,99517.52
2023-03-29T22:56:26.602Z,99514.78
2023-03-29T22:59:12.998Z,99514.21
2023-03-29T23:01:59.778Z,99515.31
2023-03-29T23:04:46.995Z,99511.87
2023-03-29T23:07:36.538Z,99509.61
2023-03-29T23:10:28.212Z,99510.16
2023-03-29T23:13:20.044Z,99508.31
2023-03-29T23:16:07.043Z,99502.65
2023-03-29T23:18:53.540Z,99501.40
2023-03-29T23:21:39.723Z,99497.61
2023-03-29T23:24:31.181Z,99496.95
2023-03-29T23:27:19.529Z,99495.75
2023-03-29T23:30:10.281Z,99499.00
2023-03-29T23:32:57.500Z,99495.05
2023-03-29T23:35:47.716Z,99492.77
2023-03-29T23:38:40.760Z,99487.66
2023-03-29T23:41:30.203Z,99488.91
2023-03-29T23:44:22.883Z,99484.02
2023-03-29T23:47:09.984Z,99481.75
2023-03-29T23:50:00.576Z,99484.37
2023-03-29T23:52:49.978Z,99481.38
2023-03-29T23:55:39.774Z,99482.06
2023-03-29T23:58:36.890Z,99481.88
